sensor_id;sensor_type;location;lat;lon;timestamp;temperature;humidity
51902;DHT22;37929;53.218;6.548;2023-12-22T00:02:01;6.20;99.90
51902;DHT22;37929;53.218;6.548;2023-12-22T00:04:27;6.10;99.90
51902;DHT22;37929;53.218;6.548;2023-12-22T00:06:52;6.40;99.90
51902;DHT22;37929;53.218;6.548;2023-12-22T00:09:18;7.20;99.90
51902;DHT22;37929;53.218;6.548;2023-12-22T00:11:44;7.60;99.90
51902;DHT22;37929;53.218;6.548;2023-12-22T00:14:10;6.70;99.90
51902;DHT22;37929;53.218;6.548;2023-12-22T00:16:37;6.30;99.90
51902;DHT22;37929;53.218;6.548;2023-12-22T00:19:04;6.40;99.90
51902;DHT22;37929;53.218;6.548;2023-12-22T00:21:29;6.40;99.90
51902;DHT22;37929;53.218;6.548;2023-12-22T00:23:55;6.30;99.90
51902;DHT22;37929;53.218;6.548;2023-12-22T00:26:22;6.20;99.90
51902;DHT22;37929;53.218;6.548;2023-12-22T00:28:48;6.20;99.90
51902;DHT22;37929;53.218;6.548;2023-12-22T00:31:14;6.30;99.90
51902;DHT22;37929;53.218;6.548;2023-12-22T00:33:40;6.10;99.90
51902;DHT22;37929;53.218;6.548;2023-12-22T00:36:06;7.80;99.90
51902;DHT22;37929;53.218;6.548;2023-12-22T00:38:31;6.20;99.90
51902;DHT22;37929;53.218;6.548;2023-12-22T00:40:57;6.10;99.90
51902;DHT22;37929;53.218;6.548;2023-12-22T00:43:23;6.10;99.90
51902;DHT22;37929;53.218;6.548;2023-12-22T00:45:49;7.10;99.90
51902;DHT22;37929;53.218;6.548;2023-12-22T00:48:14;6.00;99.90
51902;DHT22;37929;53.218;6.548;2023-12-22T00:50:44;7.20;99.90
51902;DHT22;37929;53.218;6.548;2023-12-22T00:53:10;5.90;99.90
51902;DHT22;37929;53.218;6.548;2023-12-22T00:55:36;6.00;99.90
51902;DHT22;37929;53.218;6.548;2023-12-22T00:58:04;6.00;99.90
51902;DHT22;37929;53.218;6.548;2023-12-22T01:00:30;6.10;99.90
51902;DHT22;37929;53.218;6.548;2023-12-22T01:02:55;6.10;99.90
51902;DHT22;37929;53.218;6.548;2023-12-22T01:05:21;6.10;99.90
51902;DHT22;37929;53.218;6.548;2023-12-22T01:07:47;6.60;99.90
51902;DHT22;37929;53.218;6.548;2023-12-22T01:10:13;6.40;99.90
51902;DHT22;37929;53.218;6.548;2023-12-22T01:12:39;5.90;99.90
51902;DHT22;37929;53.218;6.548;2023-12-22T01:15:05;6.00;99.90
51902;DHT22;37929;53.218;6.548;2023-12-22T01:17:31;6.00;99.90
51902;DHT22;37929;53.218;6.548;2023-12-22T01:19:56;6.60;99.90
51902;DHT22;37929;53.218;6.548;2023-12-22T01:22:22;7.40;99.90
51902;DHT22;37929;53.218;6.548;2023-12-22T01:24:48;6.70;99.90
51902;DHT22;37929;53.218;6.548;2023-12-22T01:27:15;6.90;99.90
51902;DHT22;37929;53.218;6.548;2023-12-22T01:29:40;6.20;99.90
51902;DHT22;37929;53.218;6.548;2023-12-22T01:32:06;6.10;99.90
51902;DHT22;37929;53.218;6.548;2023-12-22T01:34:32;6.10;99.90
51902;DHT22;37929;53.218;6.548;2023-12-22T01:36:58;7.70;99.90
51902;DHT22;37929;53.218;6.548;2023-12-22T01:39:24;7.50;99.90
51902;DHT22;37929;53.218;6.548;2023-12-22T01:41:49;6.10;99.90
51902;DHT22;37929;53.218;6.548;2023-12-22T01:44:15;6.10;99.90
51902;DHT22;37929;53.218;6.548;2023-12-22T01:46:41;6.80;99.90
51902;DHT22;37929;53.218;6.548;2023-12-22T01:49:07;7.20;99.90
51902;DHT22;37929;53.218;6.548;2023-12-22T01:51:35;7.40;99.90
51902;DHT22;37929;53.218;6.548;2023-12-22T01:54:02;6.30;99.90
51902;DHT22;37929;53.218;6.548;2023-12-22T01:56:29;6.10;99.90
51902;DHT22;37929;53.218;6.548;2023-12-22T01:58:59;6.00;99.90
51902;DHT22;37929;53.218;6.548;2023-12-22T02:01:26;5.90;99.90
51902;DHT22;37929;53.218;6.548;2023-12-22T02:03:54;5.90;99.90
51902;DHT22;37929;53.218;6.548;2023-12-22T02:06:20;5.90;99.90
51902;DHT22;37929;53.218;6.548;2023-12-22T02:08:47;5.90;99.90
51902;DHT22;37929;53.218;6.548;2023-12-22T02:11:16;5.90;99.90
51902;DHT22;37929;53.218;6.548;2023-12-22T02:13:43;6.00;99.90
51902;DHT22;37929;53.218;6.548;2023-12-22T02:16:40;7.30;99.90
51902;DHT22;37929;53.218;6.548;2023-12-22T02:19:42;6.00;99.90
51902;DHT22;37929;53.218;6.548;2023-12-22T02:22:10;6.00;99.90
51902;DHT22;37929;53.218;6.548;2023-12-22T02:24:36;6.00;99.90
51902;DHT22;37929;53.218;6.548;2023-12-22T02:27:22;7.10;99.90
51902;DHT22;37929;53.218;6.548;2023-12-22T02:30:08;5.80;99.90
51902;DHT22;37929;53.218;6.548;2023-12-22T02:32:38;5.70;99.90
51902;DHT22;37929;53.218;6.548;2023-12-22T02:35:10;6.40;99.90
51902;DHT22;37929;53.218;6.548;2023-12-22T02:37:38;5.80;99.90
51902;DHT22;37929;53.218;6.548;2023-12-22T02:40:05;5.60;99.90
51902;DHT22;37929;53.218;6.548;2023-12-22T02:42:33;5.60;99.90
51902;DHT22;37929;53.218;6.548;2023-12-22T02:44:59;5.60;99.90
51902;DHT22;37929;53.218;6.548;2023-12-22T02:47:26;5.60;99.90
51902;DHT22;37929;53.218;6.548;2023-12-22T02:49:54;5.60;99.90
51902;DHT22;37929;53.218;6.548;2023-12-22T02:52:20;5.70;99.90
51902;DHT22;37929;53.218;6.548;2023-12-22T02:54:46;6.70;99.90
51902;DHT22;37929;53.218;6.548;2023-12-22T02:57:12;5.70;99.90
51902;DHT22;37929;53.218;6.548;2023-12-22T02:59:44;6.30;99.90
51902;DHT22;37929;53.218;6.548;2023-12-22T03:02:15;6.10;99.90
51902;DHT22;37929;53.218;6.548;2023-12-22T03:04:41;6.00;99.90
51902;DHT22;37929;53.218;6.548;2023-12-22T03:07:07;6.00;99.90
51902;DHT22;37929;53.218;6.548;2023-12-22T03:09:32;5.90;99.90
51902;DHT22;37929;53.218;6.548;2023-12-22T03:12:01;5.70;99.90
51902;DHT22;37929;53.218;6.548;2023-12-22T03:14:31;5.40;99.90
51902;DHT22;37929;53.218;6.548;2023-12-22T03:16:59;6.80;99.90
51902;DHT22;37929;53.218;6.548;2023-12-22T03:19:25;5.00;99.90
51902;DHT22;37929;53.218;6.548;2023-12-22T03:21:51;4.90;99.90
51902;DHT22;37929;53.218;6.548;2023-12-22T03:24:17;5.80;99.90
51902;DHT22;37929;53.218;6.548;2023-12-22T03:26:45;5.80;99.90
51902;DHT22;37929;53.218;6.548;2023-12-22T03:29:11;5.30;99.90
51902;DHT22;37929;53.218;6.548;2023-12-22T03:31:37;6.30;99.90
51902;DHT22;37929;53.218;6.548;2023-12-22T03:34:03;6.00;99.90
51902;DHT22;37929;53.218;6.548;2023-12-22T03:36:28;6.40;99.90
51902;DHT22;37929;53.218;6.548;2023-12-22T03:38:54;4.80;99.90
51902;DHT22;37929;53.218;6.548;2023-12-22T03:41:20;4.90;99.90
51902;DHT22;37929;53.218;6.548;2023-12-22T03:43:48;6.00;99.90
51902;DHT22;37929;53.218;6.548;2023-12-22T03:46:14;5.90;99.90
51902;DHT22;37929;53.218;6.548;2023-12-22T03:48:40;5.20;99.90
51902;DHT22;37929;53.218;6.548;2023-12-22T03:51:06;5.80;99.90
51902;DHT22;37929;53.218;6.548;2023-12-22T03:53:31;5.60;99.90
51902;DHT22;37929;53.218;6.548;2023-12-22T03:55:57;5.60;99.90
51902;DHT22;37929;53.218;6.548;2023-12-22T03:58:23;6.60;99.90
51902;DHT22;37929;53.218;6.548;2023-12-22T04:00:50;5.80;99.90
51902;DHT22;37929;53.218;6.548;2023-12-22T04:03:16;6.30;99.90
51902;DHT22;37929;53.218;6.548;2023-12-22T04:05:41;5.90;99.90
51902;DHT22;37929;53.218;6.548;2023-12-22T04:08:12;6.40;99.90
51902;DHT22;37929;53.218;6.548;2023-12-22T04:20:33;5.70;99.90
51902;DHT22;37929;53.218;6.548;2023-12-22T04:22:58;6.10;99.90
51902;DHT22;37929;53.218;6.548;2023-12-22T04:25:24;6.20;99.90
51902;DHT22;37929;53.218;6.548;2023-12-22T04:27:51;7.00;99.90
51902;DHT22;37929;53.218;6.548;2023-12-22T04:30:17;6.20;99.90
51902;DHT22;37929;53.218;6.548;2023-12-22T04:32:43;6.20;99.90
51902;DHT22;37929;53.218;6.548;2023-12-22T04:35:09;6.10;99.90
51902;DHT22;37929;53.218;6.548;2023-12-22T04:37:35;6.30;99.90
51902;DHT22;37929;53.218;6.548;2023-12-22T04:40:01;6.30;99.90
51902;DHT22;37929;53.218;6.548;2023-12-22T04:42:27;6.70;99.90
51902;DHT22;37929;53.218;6.548;2023-12-22T04:44:54;6.40;99.90
51902;DHT22;37929;53.218;6.548;2023-12-22T04:47:20;6.50;99.90
51902;DHT22;37929;53.218;6.548;2023-12-22T04:49:46;6.80;99.90
51902;DHT22;37929;53.218;6.548;2023-12-22T04:52:12;7.30;99.90
51902;DHT22;37929;53.218;6.548;2023-12-22T04:54:37;6.50;99.90
51902;DHT22;37929;53.218;6.548;2023-12-22T04:57:06;6.80;99.90
51902;DHT22;37929;53.218;6.548;2023-12-22T04:59:32;6.70;99.90
51902;DHT22;37929;53.218;6.548;2023-12-22T05:01:58;6.50;99.90
51902;DHT22;37929;53.218;6.548;2023-12-22T05:04:23;6.50;99.90
51902;DHT22;37929;53.218;6.548;2023-12-22T05:06:49;6.60;99.90
51902;DHT22;37929;53.218;6.548;2023-12-22T05:09:15;6.70;99.90
51902;DHT22;37929;53.218;6.548;2023-12-22T05:11:41;6.70;99.90
51902;DHT22;37929;53.218;6.548;2023-12-22T05:14:07;7.40;99.90
51902;DHT22;37929;53.218;6.548;2023-12-22T05:16:33;5.60;99.90
51902;DHT22;37929;53.218;6.548;2023-12-22T05:18:59;6.90;99.90
51902;DHT22;37929;53.218;6.548;2023-12-22T05:21:25;6.90;99.90
51902;DHT22;37929;53.218;6.548;2023-12-22T05:23:54;7.10;99.90
51902;DHT22;37929;53.218;6.548;2023-12-22T05:26:21;7.00;99.90
51902;DHT22;37929;53.218;6.548;2023-12-22T05:28:47;8.00;99.90
51902;DHT22;37929;53.218;6.548;2023-12-22T05:31:16;8.30;99.90
51902;DHT22;37929;53.218;6.548;2023-12-22T05:33:42;6.90;99.90
51902;DHT22;37929;53.218;6.548;2023-12-22T05:36:08;6.90;99.90
51902;DHT22;37929;53.218;6.548;2023-12-22T05:38:38;7.50;99.90
51902;DHT22;37929;53.218;6.548;2023-12-22T05:41:04;6.90;99.90
51902;DHT22;37929;53.218;6.548;2023-12-22T05:43:32;7.00;99.90
51902;DHT22;37929;53.218;6.548;2023-12-22T05:46:01;7.00;99.90
51902;DHT22;37929;53.218;6.548;2023-12-22T05:48:27;7.00;99.90
51902;DHT22;37929;53.218;6.548;2023-12-22T05:50:56;7.20;99.90
51902;DHT22;37929;53.218;6.548;2023-12-22T05:53:21;7.00;99.90
51902;DHT22;37929;53.218;6.548;2023-12-22T05:55:50;7.00;99.90
51902;DHT22;37929;53.218;6.548;2023-12-22T05:58:16;7.00;99.90
51902;DHT22;37929;53.218;6.548;2023-12-22T06:00:41;7.00;99.90
51902;DHT22;37929;53.218;6.548;2023-12-22T06:03:08;7.50;99.90
51902;DHT22;37929;53.218;6.548;2023-12-22T06:05:37;7.00;99.90
51902;DHT22;37929;53.218;6.548;2023-12-22T06:08:04;7.10;99.90
51902;DHT22;37929;53.218;6.548;2023-12-22T06:10:32;7.00;99.90
51902;DHT22;37929;53.218;6.548;2023-12-22T06:12:58;7.00;99.90
51902;DHT22;37929;53.218;6.548;2023-12-22T06:15:26;7.00;99.90
51902;DHT22;37929;53.218;6.548;2023-12-22T06:17:52;7.00;99.90
51902;DHT22;37929;53.218;6.548;2023-12-22T06:20:17;7.80;99.90
51902;DHT22;37929;53.218;6.548;2023-12-22T06:22:43;6.90;99.90
51902;DHT22;37929;53.218;6.548;2023-12-22T06:25:09;6.90;99.90
51902;DHT22;37929;53.218;6.548;2023-12-22T06:27:35;6.60;99.90
51902;DHT22;37929;53.218;6.548;2023-12-22T06:30:03;6.90;99.90
51902;DHT22;37929;53.218;6.548;2023-12-22T06:32:29;7.00;99.90
51902;DHT22;37929;53.218;6.548;2023-12-22T06:34:55;8.30;99.90
51902;DHT22;37929;53.218;6.548;2023-12-22T06:37:20;7.00;99.90
51902;DHT22;37929;53.218;6.548;2023-12-22T06:39:46;6.90;99.90
51902;DHT22;37929;53.218;6.548;2023-12-22T06:42:12;7.40;99.90
51902;DHT22;37929;53.218;6.548;2023-12-22T06:44:41;6.90;99.90
51902;DHT22;37929;53.218;6.548;2023-12-22T06:47:08;6.70;99.90
51902;DHT22;37929;53.218;6.548;2023-12-22T06:49:34;6.80;99.90
51902;DHT22;37929;53.218;6.548;2023-12-22T06:51:59;6.80;99.90
51902;DHT22;37929;53.218;6.548;2023-12-22T06:54:25;8.20;99.90
51902;DHT22;37929;53.218;6.548;2023-12-22T06:56:51;6.40;99.90
51902;DHT22;37929;53.218;6.548;2023-12-22T06:59:16;6.40;99.90
51902;DHT22;37929;53.218;6.548;2023-12-22T07:01:42;6.40;99.90
51902;DHT22;37929;53.218;6.548;2023-12-22T07:04:08;7.70;99.90
51902;DHT22;37929;53.218;6.548;2023-12-22T07:06:34;6.50;99.90
51902;DHT22;37929;53.218;6.548;2023-12-22T07:14:08;6.60;99.90
51902;DHT22;37929;53.218;6.548;2023-12-22T07:16:36;6.60;99.90
51902;DHT22;37929;53.218;6.548;2023-12-22T07:19:03;6.70;99.90
51902;DHT22;37929;53.218;6.548;2023-12-22T07:21:29;6.70;99.90
51902;DHT22;37929;53.218;6.548;2023-12-22T07:23:54;6.70;99.90
51902;DHT22;37929;53.218;6.548;2023-12-22T07:26:20;6.80;99.90
51902;DHT22;37929;53.218;6.548;2023-12-22T07:28:47;6.80;99.90
51902;DHT22;37929;53.218;6.548;2023-12-22T07:31:14;6.80;99.90
51902;DHT22;37929;53.218;6.548;2023-12-22T07:33:40;7.20;99.90
51902;DHT22;37929;53.218;6.548;2023-12-22T07:36:06;8.10;99.90
51902;DHT22;37929;53.218;6.548;2023-12-22T07:38:32;6.80;99.90
51902;DHT22;37929;53.218;6.548;2023-12-22T07:40:58;7.10;99.90
51902;DHT22;37929;53.218;6.548;2023-12-22T07:43:24;7.30;99.90
51902;DHT22;37929;53.218;6.548;2023-12-22T07:45:50;6.60;99.90
51902;DHT22;37929;53.218;6.548;2023-12-22T07:48:17;6.50;99.90
51902;DHT22;37929;53.218;6.548;2023-12-22T07:50:43;6.50;99.90
51902;DHT22;37929;53.218;6.548;2023-12-22T07:53:10;6.50;99.90
51902;DHT22;37929;53.218;6.548;2023-12-22T07:55:36;6.40;99.90
51902;DHT22;37929;53.218;6.548;2023-12-22T07:58:07;6.40;99.90
51902;DHT22;37929;53.218;6.548;2023-12-22T08:00:33;6.40;99.90
51902;DHT22;37929;53.218;6.548;2023-12-22T08:02:59;7.60;99.90
51902;DHT22;37929;53.218;6.548;2023-12-22T08:05:25;6.50;99.90
51902;DHT22;37929;53.218;6.548;2023-12-22T08:07:51;6.60;99.90
51902;DHT22;37929;53.218;6.548;2023-12-22T08:10:17;6.70;99.90
51902;DHT22;37929;53.218;6.548;2023-12-22T08:12:46;8.00;99.90
51902;DHT22;37929;53.218;6.548;2023-12-22T08:15:12;6.90;99.90
51902;DHT22;37929;53.218;6.548;2023-12-22T08:17:46;7.40;99.90
51902;DHT22;37929;53.218;6.548;2023-12-22T08:20:16;6.90;99.90
51902;DHT22;37929;53.218;6.548;2023-12-22T08:22:47;6.90;99.90
51902;DHT22;37929;53.218;6.548;2023-12-22T08:25:13;7.90;99.90
51902;DHT22;37929;53.218;6.548;2023-12-22T08:27:39;8.10;99.90
51902;DHT22;37929;53.218;6.548;2023-12-22T08:30:06;7.00;99.90
51902;DHT22;37929;53.218;6.548;2023-12-22T08:32:32;7.00;99.90
51902;DHT22;37929;53.218;6.548;2023-12-22T08:34:58;6.90;99.90
51902;DHT22;37929;53.218;6.548;2023-12-22T08:37:23;6.90;99.90
51902;DHT22;37929;53.218;6.548;2023-12-22T08:39:49;6.90;99.90
51902;DHT22;37929;53.218;6.548;2023-12-22T08:42:17;7.30;99.90
51902;DHT22;37929;53.218;6.548;2023-12-22T08:44:42;6.90;99.90
51902;DHT22;37929;53.218;6.548;2023-12-22T08:47:11;7.00;99.90
51902;DHT22;37929;53.218;6.548;2023-12-22T08:49:37;6.90;99.90
51902;DHT22;37929;53.218;6.548;2023-12-22T08:52:03;7.50;99.90
51902;DHT22;37929;53.218;6.548;2023-12-22T08:54:30;8.30;99.90
51902;DHT22;37929;53.218;6.548;2023-12-22T08:56:56;7.00;99.90
51902;DHT22;37929;53.218;6.548;2023-12-22T08:59:24;6.80;99.90
51902;DHT22;37929;53.218;6.548;2023-12-22T09:01:50;6.70;99.90
51902;DHT22;37929;53.218;6.548;2023-12-22T09:04:16;6.60;99.90
51902;DHT22;37929;53.218;6.548;2023-12-22T09:06:42;6.70;99.90
51902;DHT22;37929;53.218;6.548;2023-12-22T09:09:08;7.40;99.90
51902;DHT22;37929;53.218;6.548;2023-12-22T09:11:37;6.70;99.90
51902;DHT22;37929;53.218;6.548;2023-12-22T09:14:05;7.70;99.90
51902;DHT22;37929;53.218;6.548;2023-12-22T09:16:34;6.60;99.90
51902;DHT22;37929;53.218;6.548;2023-12-22T09:19:00;6.70;99.90
51902;DHT22;37929;53.218;6.548;2023-12-22T09:21:25;6.70;99.90
51902;DHT22;37929;53.218;6.548;2023-12-22T09:23:54;6.70;99.90
51902;DHT22;37929;53.218;6.548;2023-12-22T09:26:20;7.70;99.90
51902;DHT22;37929;53.218;6.548;2023-12-22T09:28:46;6.80;99.90
51902;DHT22;37929;53.218;6.548;2023-12-22T09:31:12;6.80;99.90
51902;DHT22;37929;53.218;6.548;2023-12-22T09:33:42;6.80;99.90
51902;DHT22;37929;53.218;6.548;2023-12-22T09:36:11;6.80;99.90
51902;DHT22;37929;53.218;6.548;2023-12-22T09:38:37;6.80;99.90
51902;DHT22;37929;53.218;6.548;2023-12-22T09:41:05;7.00;99.90
51902;DHT22;37929;53.218;6.548;2023-12-22T09:43:34;7.00;99.90
51902;DHT22;37929;53.218;6.548;2023-12-22T09:46:04;7.10;99.90
51902;DHT22;37929;53.218;6.548;2023-12-22T09:48:32;7.20;99.90
51902;DHT22;37929;53.218;6.548;2023-12-22T09:51:01;7.10;99.90
51902;DHT22;37929;53.218;6.548;2023-12-22T09:53:28;7.20;99.90
51902;DHT22;37929;53.218;6.548;2023-12-22T09:55:57;7.20;99.90
51902;DHT22;37929;53.218;6.548;2023-12-22T09:58:24;7.20;99.90
51902;DHT22;37929;53.218;6.548;2023-12-22T10:00:51;7.60;99.90
51902;DHT22;37929;53.218;6.548;2023-12-22T10:03:19;7.20;99.90
51902;DHT22;37929;53.218;6.548;2023-12-22T10:05:46;7.40;99.90
51902;DHT22;37929;53.218;6.548;2023-12-22T10:08:13;7.30;99.90
51902;DHT22;37929;53.218;6.548;2023-12-22T10:10:39;7.30;99.90
51902;DHT22;37929;53.218;6.548;2023-12-22T10:13:10;7.20;99.90
51902;DHT22;37929;53.218;6.548;2023-12-22T10:15:40;8.70;99.90
51902;DHT22;37929;53.218;6.548;2023-12-22T10:18:09;8.20;99.90
51902;DHT22;37929;53.218;6.548;2023-12-22T10:20:35;8.10;99.90
51902;DHT22;37929;53.218;6.548;2023-12-22T10:23:01;7.50;99.90
51902;DHT22;37929;53.218;6.548;2023-12-22T10:25:28;7.50;99.90
51902;DHT22;37929;53.218;6.548;2023-12-22T10:27:58;7.70;99.90
51902;DHT22;37929;53.218;6.548;2023-12-22T10:30:24;7.50;99.90
51902;DHT22;37929;53.218;6.548;2023-12-22T10:32:53;7.40;99.90
51902;DHT22;37929;53.218;6.548;2023-12-22T10:35:25;7.40;99.90
51902;DHT22;37929;53.218;6.548;2023-12-22T10:37:51;7.40;99.90
51902;DHT22;37929;53.218;6.548;2023-12-22T10:40:19;9.00;99.90
51902;DHT22;37929;53.218;6.548;2023-12-22T10:42:45;7.50;99.90
51902;DHT22;37929;53.218;6.548;2023-12-22T10:45:11;7.50;99.90
51902;DHT22;37929;53.218;6.548;2023-12-22T10:47:40;8.10;99.90
51902;DHT22;37929;53.218;6.548;2023-12-22T10:50:06;7.40;99.90
51902;DHT22;37929;53.218;6.548;2023-12-22T10:52:33;7.40;99.90
51902;DHT22;37929;53.218;6.548;2023-12-22T10:54:59;7.70;99.90
51902;DHT22;37929;53.218;6.548;2023-12-22T10:57:28;7.60;99.90
51902;DHT22;37929;53.218;6.548;2023-12-22T10:59:56;7.40;99.90
51902;DHT22;37929;53.218;6.548;2023-12-22T11:02:23;7.40;99.90
51902;DHT22;37929;53.218;6.548;2023-12-22T11:07:25;7.50;99.90
51902;DHT22;37929;53.218;6.548;2023-12-22T11:09:56;7.50;99.90
51902;DHT22;37929;53.218;6.548;2023-12-22T11:12:23;7.50;99.90
51902;DHT22;37929;53.218;6.548;2023-12-22T11:14:52;8.30;99.90
51902;DHT22;37929;53.218;6.548;2023-12-22T11:17:22;7.50;99.90
51902;DHT22;37929;53.218;6.548;2023-12-22T11:19:54;7.50;99.90
51902;DHT22;37929;53.218;6.548;2023-12-22T11:22:21;7.60;99.90
51902;DHT22;37929;53.218;6.548;2023-12-22T11:24:48;7.60;99.90
51902;DHT22;37929;53.218;6.548;2023-12-22T11:27:19;7.60;99.90
51902;DHT22;37929;53.218;6.548;2023-12-22T11:29:49;9.00;99.90
51902;DHT22;37929;53.218;6.548;2023-12-22T11:32:15;7.60;99.90
51902;DHT22;37929;53.218;6.548;2023-12-22T11:34:43;9.00;99.90
51902;DHT22;37929;53.218;6.548;2023-12-22T11:37:12;7.70;99.90
51902;DHT22;37929;53.218;6.548;2023-12-22T11:39:39;7.70;99.90
51902;DHT22;37929;53.218;6.548;2023-12-22T11:42:08;7.70;99.90
51902;DHT22;37929;53.218;6.548;2023-12-22T11:44:36;7.70;99.90
51902;DHT22;37929;53.218;6.548;2023-12-22T11:47:09;7.70;99.90
51902;DHT22;37929;53.218;6.548;2023-12-22T11:49:36;7.80;99.90
51902;DHT22;37929;53.218;6.548;2023-12-22T11:52:15;7.90;99.90
51902;DHT22;37929;53.218;6.548;2023-12-22T11:54:51;7.80;99.90
51902;DHT22;37929;53.218;6.548;2023-12-22T11:57:31;7.70;99.90
51902;DHT22;37929;53.218;6.548;2023-12-22T12:02:55;8.00;99.90
51902;DHT22;37929;53.218;6.548;2023-12-22T12:05:23;7.90;99.90
51902;DHT22;37929;53.218;6.548;2023-12-22T12:07:49;7.90;99.90
51902;DHT22;37929;53.218;6.548;2023-12-22T12:13:10;7.90;99.90
51902;DHT22;37929;53.218;6.548;2023-12-22T12:15:37;7.80;99.90
51902;DHT22;37929;53.218;6.548;2023-12-22T12:18:07;7.90;99.90
51902;DHT22;37929;53.218;6.548;2023-12-22T12:20:34;7.90;99.90
51902;DHT22;37929;53.218;6.548;2023-12-22T12:23:03;7.90;99.90
51902;DHT22;37929;53.218;6.548;2023-12-22T12:25:32;7.90;99.90
51902;DHT22;37929;53.218;6.548;2023-12-22T12:28:05;8.20;99.90
51902;DHT22;37929;53.218;6.548;2023-12-22T12:30:32;7.90;99.90
51902;DHT22;37929;53.218;6.548;2023-12-22T12:33:09;7.90;99.90
51902;DHT22;37929;53.218;6.548;2023-12-22T12:35:35;7.90;99.90
51902;DHT22;37929;53.218;6.548;2023-12-22T12:38:06;7.90;99.90
51902;DHT22;37929;53.218;6.548;2023-12-22T12:40:32;7.90;99.90
51902;DHT22;37929;53.218;6.548;2023-12-22T12:43:01;7.80;99.90
51902;DHT22;37929;53.218;6.548;2023-12-22T12:45:27;7.80;99.90
51902;DHT22;37929;53.218;6.548;2023-12-22T12:48:02;7.90;99.90
51902;DHT22;37929;53.218;6.548;2023-12-22T12:50:29;7.90;99.90
51902;DHT22;37929;53.218;6.548;2023-12-22T12:52:57;7.80;99.90
51902;DHT22;37929;53.218;6.548;2023-12-22T12:55:24;7.70;99.90
51902;DHT22;37929;53.218;6.548;2023-12-22T12:57:51;7.70;99.90
51902;DHT22;37929;53.218;6.548;2023-12-22T13:00:32;8.20;99.90
51902;DHT22;37929;53.218;6.548;2023-12-22T13:03:02;7.70;99.90
51902;DHT22;37929;53.218;6.548;2023-12-22T13:05:28;7.60;99.90
51902;DHT22;37929;53.218;6.548;2023-12-22T13:08:09;7.70;99.90
51902;DHT22;37929;53.218;6.548;2023-12-22T13:10:35;7.60;99.90
51902;DHT22;37929;53.218;6.548;2023-12-22T13:13:02;8.30;99.90
51902;DHT22;37929;53.218;6.548;2023-12-22T13:15:29;7.60;99.90
51902;DHT22;37929;53.218;6.548;2023-12-22T13:17:55;7.60;99.90
51902;DHT22;37929;53.218;6.548;2023-12-22T13:20:21;7.60;99.90
51902;DHT22;37929;53.218;6.548;2023-12-22T13:22:48;7.60;99.90
51902;DHT22;37929;53.218;6.548;2023-12-22T13:25:14;7.50;99.90
51902;DHT22;37929;53.218;6.548;2023-12-22T13:27:47;7.50;99.90
51902;DHT22;37929;53.218;6.548;2023-12-22T13:30:51;7.50;99.90
51902;DHT22;37929;53.218;6.548;2023-12-22T13:33:17;8.50;99.90
51902;DHT22;37929;53.218;6.548;2023-12-22T13:35:43;7.40;99.90
51902;DHT22;37929;53.218;6.548;2023-12-22T13:38:09;7.40;99.90
51902;DHT22;37929;53.218;6.548;2023-12-22T13:40:35;7.30;99.90
51902;DHT22;37929;53.218;6.548;2023-12-22T13:43:01;7.10;99.90
51902;DHT22;37929;53.218;6.548;2023-12-22T13:45:28;7.10;99.90
51902;DHT22;37929;53.218;6.548;2023-12-22T13:48:15;7.20;99.90
51902;DHT22;37929;53.218;6.548;2023-12-22T13:50:41;7.10;99.90
51902;DHT22;37929;53.218;6.548;2023-12-22T13:53:08;7.10;99.90
51902;DHT22;37929;53.218;6.548;2023-12-22T13:55:34;7.20;99.90
51902;DHT22;37929;53.218;6.548;2023-12-22T13:58:03;7.10;99.90
51902;DHT22;37929;53.218;6.548;2023-12-22T14:00:34;7.00;99.90
51902;DHT22;37929;53.218;6.548;2023-12-22T14:03:01;7.00;99.90
51902;DHT22;37929;53.218;6.548;2023-12-22T14:05:27;7.30;99.90
51902;DHT22;37929;53.218;6.548;2023-12-22T14:07:54;7.00;99.90
51902;DHT22;37929;53.218;6.548;2023-12-22T14:10:19;7.00;99.90
51902;DHT22;37929;53.218;6.548;2023-12-22T14:12:46;6.80;99.90
51902;DHT22;37929;53.218;6.548;2023-12-22T14:15:12;7.00;99.90
51902;DHT22;37929;53.218;6.548;2023-12-22T14:17:39;7.10;99.90
51902;DHT22;37929;53.218;6.548;2023-12-22T14:20:10;6.70;99.90
51902;DHT22;37929;53.218;6.548;2023-12-22T14:22:39;7.00;99.90
51902;DHT22;37929;53.218;6.548;2023-12-22T14:25:05;7.00;99.90
51902;DHT22;37929;53.218;6.548;2023-12-22T14:27:31;7.10;99.90
51902;DHT22;37929;53.218;6.548;2023-12-22T14:29:57;7.00;99.90
51902;DHT22;37929;53.218;6.548;2023-12-22T14:32:22;7.30;99.90
51902;DHT22;37929;53.218;6.548;2023-12-22T14:34:49;7.70;99.90
51902;DHT22;37929;53.218;6.548;2023-12-22T14:37:15;7.00;99.90
51902;DHT22;37929;53.218;6.548;2023-12-22T14:39:43;7.00;99.90
51902;DHT22;37929;53.218;6.548;2023-12-22T14:42:11;7.50;99.90
51902;DHT22;37929;53.218;6.548;2023-12-22T14:44:38;7.00;99.90
51902;DHT22;37929;53.218;6.548;2023-12-22T14:47:30;7.40;99.90
51902;DHT22;37929;53.218;6.548;2023-12-22T14:49:56;7.10;99.90
51902;DHT22;37929;53.218;6.548;2023-12-22T14:52:25;8.50;99.90
51902;DHT22;37929;53.218;6.548;2023-12-22T14:54:56;7.00;99.90
51902;DHT22;37929;53.218;6.548;2023-12-22T14:57:22;8.20;99.90
51902;DHT22;37929;53.218;6.548;2023-12-22T14:59:48;6.90;99.90
51902;DHT22;37929;53.218;6.548;2023-12-22T15:02:14;6.90;99.90
51902;DHT22;37929;53.218;6.548;2023-12-22T15:04:40;8.20;99.90
51902;DHT22;37929;53.218;6.548;2023-12-22T15:07:05;6.90;99.90
51902;DHT22;37929;53.218;6.548;2023-12-22T15:09:31;7.90;99.90
51902;DHT22;37929;53.218;6.548;2023-12-22T15:11:57;8.10;99.90
51902;DHT22;37929;53.218;6.548;2023-12-22T15:14:29;6.90;99.90
51902;DHT22;37929;53.218;6.548;2023-12-22T15:16:58;6.90;99.90
51902;DHT22;37929;53.218;6.548;2023-12-22T15:19:24;6.90;99.90
51902;DHT22;37929;53.218;6.548;2023-12-22T15:21:51;6.90;99.90
51902;DHT22;37929;53.218;6.548;2023-12-22T15:24:16;8.10;99.90
51902;DHT22;37929;53.218;6.548;2023-12-22T15:26:42;7.20;99.90
51902;DHT22;37929;53.218;6.548;2023-12-22T15:29:09;7.10;99.90
51902;DHT22;37929;53.218;6.548;2023-12-22T15:31:34;7.20;99.90
51902;DHT22;37929;53.218;6.548;2023-12-22T15:34:00;7.10;99.90
51902;DHT22;37929;53.218;6.548;2023-12-22T15:36:26;7.30;99.90
51902;DHT22;37929;53.218;6.548;2023-12-22T15:38:53;8.00;99.90
51902;DHT22;37929;53.218;6.548;2023-12-22T15:41:19;7.10;99.90
51902;DHT22;37929;53.218;6.548;2023-12-22T15:43:45;7.10;99.90
51902;DHT22;37929;53.218;6.548;2023-12-22T15:46:11;7.10;99.90
51902;DHT22;37929;53.218;6.548;2023-12-22T15:48:37;7.10;99.90
51902;DHT22;37929;53.218;6.548;2023-12-22T15:51:09;7.20;99.90
51902;DHT22;37929;53.218;6.548;2023-12-22T15:53:39;7.20;99.90
51902;DHT22;37929;53.218;6.548;2023-12-22T15:56:08;7.20;99.90
51902;DHT22;37929;53.218;6.548;2023-12-22T15:58:39;7.20;99.90
51902;DHT22;37929;53.218;6.548;2023-12-22T16:01:12;7.20;99.90
51902;DHT22;37929;53.218;6.548;2023-12-22T16:03:41;7.50;99.90
51902;DHT22;37929;53.218;6.548;2023-12-22T16:06:07;7.20;99.90
51902;DHT22;37929;53.218;6.548;2023-12-22T16:08:37;7.20;99.90
51902;DHT22;37929;53.218;6.548;2023-12-22T16:11:05;7.20;99.90